Time;durP1;ratioP1;P1;durP2;ratioP2;P2;SDS_P1;SDS_P2;PMS_P1;PMS_P2;Temp;Humidity;BMP_temperature;BMP_pressure;BME280_temperature;BME280_humidity;BME280_pressure;Samples;Min_cycle;Max_cycle;Signal;HPM_P1;HPM_P2
2021/04/19 00:00:56;;;;;;;18.77;14.10;;;;;;;;;;5116138;27;20026;-52
2021/04/19 00:03:21;;;;;;;22.33;15.75;;;;;;;;;;5117752;27;20023;-53
2021/04/19 00:05:47;;;;;;;21.42;14.40;;;;;;;;;;5118440;27;20027;-51
2021/04/19 00:08:12;;;;;;;16.10;12.82;;;;;;;;;;5132971;27;20038;-52
2021/04/19 00:10:38;;;;;;;16.35;13.30;;;;;;;;;;5131985;27;20035;-50
2021/04/19 00:13:03;;;;;;;16.92;14.48;;;;;;;;;;5125440;27;20027;-49
2021/04/19 00:15:29;;;;;;;19.83;15.00;;;;;;;;;;5129273;27;20043;-51
2021/04/19 00:17:54;;;;;;;19.10;14.02;;;;;;;;;;5113624;27;20034;-53
2021/04/19 00:20:20;;;;;;;17.35;13.25;;;;;;;;;;5112429;27;20020;-50
2021/04/19 00:22:45;;;;;;;20.50;14.95;;;;;;;;;;5116297;27;20054;-47
2021/04/19 00:25:11;;;;;;;20.33;14.95;;;;;;;;;;5132004;27;20015;-51
2021/04/19 00:27:36;;;;;;;19.45;15.30;;;;;;;;;;5130643;27;20007;-53
2021/04/19 00:30:03;;;;;;;18.63;14.60;;;;;;;;;;5128985;27;20015;-53
2021/04/19 00:32:28;;;;;;;18.50;13.80;;;;;;;;;;5129996;27;20031;-52
2021/04/19 00:34:53;;;;;;;17.83;13.80;;;;;;;;;;5113494;27;20023;-50
2021/04/19 00:37:19;;;;;;;19.25;14.43;;;;;;;;;;5113083;28;20027;-50
2021/04/19 00:39:44;;;;;;;16.83;12.77;;;;;;;;;;5112797;28;20061;-53
2021/04/19 00:42:10;;;;;;;16.33;12.18;;;;;;;;;;5109460;28;20280;-51
2021/04/19 00:44:35;;;;;;;15.15;12.40;;;;;;;;;;5112893;28;20421;-49
2021/04/19 00:47:01;;;;;;;21.15;15.00;;;;;;;;;;5118887;28;20023;-50
2021/04/19 00:49:27;;;;;;;18.48;14.07;;;;;;;;;;5113769;28;20031;-52
2021/04/19 00:51:53;;;;;;;18.45;12.93;;;;;;;;;;5122909;28;20043;-52
2021/04/19 00:54:19;;;;;;;15.18;11.95;;;;;;;;;;5123510;27;20052;-47
2021/04/19 00:56:46;;;;;;;19.20;12.68;;;;;;;;;;5130390;28;20030;-47
2021/04/19 00:59:11;;;;;;;19.52;13.52;;;;;;;;;;5125430;27;20022;-50
2021/04/19 01:01:36;;;;;;;19.42;13.00;;;;;;;;;;5120647;28;20027;-52
2021/04/19 01:04:02;;;;;;;16.65;13.00;;;;;;;;;;5124665;28;20028;-50
2021/04/19 01:06:27;;;;;;;19.08;13.35;;;;;;;;;;5126283;28;20027;-50
2021/04/19 01:08:52;;;;;;;17.75;13.45;;;;;;;;;;5127089;27;20056;-48
2021/04/19 01:11:17;;;;;;;20.13;13.98;;;;;;;;;;5113381;28;20458;-52
2021/04/19 01:13:43;;;;;;;20.88;14.70;;;;;;;;;;5129066;28;20561;-52
2021/04/19 01:16:08;;;;;;;22.77;15.13;;;;;;;;;;5125747;28;20367;-51
2021/04/19 01:18:33;;;;;;;21.80;17.00;;;;;;;;;;5132240;28;20031;-51
2021/04/19 01:20:58;;;;;;;23.40;16.92;;;;;;;;;;5131027;28;20027;-51
2021/04/19 01:23:24;;;;;;;22.00;16.15;;;;;;;;;;5128573;28;20093;-50
2021/04/19 01:25:49;;;;;;;20.70;16.00;;;;;;;;;;5121919;28;20168;-47
2021/04/19 01:28:15;;;;;;;22.45;16.05;;;;;;;;;;5112499;28;20032;-50
2021/04/19 01:30:42;;;;;;;22.95;17.15;;;;;;;;;;5131058;28;20019;-53
2021/04/19 01:33:07;;;;;;;26.08;18.40;;;;;;;;;;5126419;27;20023;-50
2021/04/19 01:35:33;;;;;;;22.55;16.90;;;;;;;;;;5119050;27;20031;-52
2021/04/19 01:37:58;;;;;;;28.73;19.83;;;;;;;;;;5134148;27;20474;-53
2021/04/19 01:40:24;;;;;;;28.05;19.52;;;;;;;;;;5135273;27;20480;-51
2021/04/19 01:42:49;;;;;;;28.75;20.85;;;;;;;;;;5131901;27;20027;-51
2021/04/19 01:45:16;;;;;;;30.60;22.38;;;;;;;;;;5134570;27;20412;-50
2021/04/19 01:47:41;;;;;;;31.48;22.52;;;;;;;;;;5136163;27;20419;-51
2021/04/19 01:50:07;;;;;;;28.57;21.17;;;;;;;;;;5132007;27;20023;-52
2021/04/19 01:52:33;;;;;;;30.35;21.20;;;;;;;;;;5127510;27;20047;-53
2021/04/19 01:54:58;;;;;;;29.08;20.88;;;;;;;;;;5134670;27;20019;-53
2021/04/19 01:57:23;;;;;;;26.83;19.35;;;;;;;;;;5122791;27;20027;-54
2021/04/19 01:59:49;;;;;;;28.73;20.48;;;;;;;;;;5136325;27;20099;-51
2021/04/19 02:02:23;;;;;;;26.45;19.38;;;;;;;;;;5129111;27;20050;-53
2021/04/19 02:05:03;;;;;;;27.98;20.45;;;;;;;;;;5135233;27;20027;-48
2021/04/19 02:07:38;;;;;;;28.90;20.45;;;;;;;;;;5134867;27;20481;-53
2021/04/19 02:10:16;;;;;;;27.38;20.67;;;;;;;;;;5129186;27;20019;-53
2021/04/19 02:12:46;;;;;;;27.90;19.30;;;;;;;;;;5119629;27;20020;-51
2021/04/19 02:15:14;;;;;;;26.55;19.55;;;;;;;;;;5129990;27;20015;-53
2021/04/19 02:17:54;;;;;;;25.95;20.02;;;;;;;;;;5133826;27;20386;-49
2021/04/19 02:20:28;;;;;;;25.33;18.90;;;;;;;;;;5128716;27;20023;-52
2021/04/19 02:22:56;;;;;;;27.98;20.65;;;;;;;;;;5125135;27;20046;-53
2021/04/19 02:25:34;;;;;;;26.90;20.73;;;;;;;;;;5135474;27;20496;-50
2021/04/19 02:28:04;;;;;;;24.08;19.30;;;;;;;;;;5132103;27;20437;-51
2021/04/19 02:30:40;;;;;;;27.15;19.10;;;;;;;;;;5135598;27;20076;-51
2021/04/19 02:33:10;;;;;;;29.70;19.80;;;;;;;;;;5130886;27;20088;-54
2021/04/19 02:35:37;;;;;;;28.55;19.88;;;;;;;;;;5134979;27;20149;-51
2021/04/19 02:38:02;;;;;;;28.70;20.13;;;;;;;;;;5134595;27;20027;-51
2021/04/19 02:40:29;;;;;;;26.90;19.98;;;;;;;;;;5132453;27;20398;-52
2021/04/19 02:42:55;;;;;;;28.30;20.33;;;;;;;;;;5124700;27;20382;-51
2021/04/19 02:45:21;;;;;;;28.55;20.67;;;;;;;;;;5128190;27;20019;-51
2021/04/19 02:47:46;;;;;;;37.55;25.08;;;;;;;;;;5122575;27;20029;-50
2021/04/19 02:50:16;;;;;;;35.47;24.35;;;;;;;;;;5133524;27;20031;-51
2021/04/19 02:52:42;;;;;;;41.92;26.95;;;;;;;;;;5120236;27;20466;-51
2021/04/19 02:55:08;;;;;;;40.28;25.65;;;;;;;;;;5120407;27;20080;-52
2021/04/19 02:57:38;;;;;;;45.47;28.35;;;;;;;;;;5121963;27;20030;-53
2021/04/19 03:00:04;;;;;;;42.83;27.17;;;;;;;;;;5134972;27;20023;-51
2021/04/19 03:02:30;;;;;;;38.40;26.73;;;;;;;;;;5129642;27;20050;-53
2021/04/19 03:04:56;;;;;;;36.15;24.90;;;;;;;;;;5120895;27;20524;-51
2021/04/19 03:07:23;;;;;;;42.65;27.08;;;;;;;;;;5126506;27;20031;-50
2021/04/19 03:09:52;;;;;;;41.42;27.40;;;;;;;;;;5114695;28;20034;-54
2021/04/19 03:12:20;;;;;;;40.90;27.05;;;;;;;;;;5129901;27;20027;-51
2021/04/19 03:14:51;;;;;;;46.70;28.30;;;;;;;;;;5123257;27;20042;-53
2021/04/19 03:17:18;;;;;;;44.28;28.73;;;;;;;;;;5119915;27;20028;-52
2021/04/19 03:19:47;;;;;;;46.92;29.88;;;;;;;;;;5125423;27;20042;-52
2021/04/19 03:22:13;;;;;;;49.10;28.17;;;;;;;;;;5123915;27;20476;-50
2021/04/19 03:24:39;;;;;;;49.33;28.55;;;;;;;;;;5134700;27;20057;-52
2021/04/19 03:27:04;;;;;;;42.67;27.88;;;;;;;;;;5118175;27;20032;-53
2021/04/19 03:29:30;;;;;;;46.40;27.17;;;;;;;;;;5116398;27;20041;-49
2021/04/19 03:31:58;;;;;;;47.50;28.02;;;;;;;;;;5119948;27;20026;-53
2021/04/19 03:34:26;;;;;;;56.40;30.30;;;;;;;;;;5133811;27;20027;-51
2021/04/19 03:37:15;;;;;;;61.05;29.90;;;;;;;;;;5128968;27;20490;-50
2021/04/19 03:39:40;;;;;;;72.07;28.90;;;;;;;;;;5121964;27;20084;-52
2021/04/19 03:42:06;;;;;;;63.42;28.85;;;;;;;;;;5118741;27;20428;-52
2021/04/19 03:44:33;;;;;;;47.47;27.10;;;;;;;;;;5125654;27;20425;-51
2021/04/19 03:47:00;;;;;;;49.97;26.83;;;;;;;;;;5131675;27;20048;-52
2021/04/19 03:49:30;;;;;;;46.40;26.85;;;;;;;;;;5122155;27;20517;-54
2021/04/19 03:51:56;;;;;;;50.15;28.48;;;;;;;;;;5128016;27;20075;-52
2021/04/19 03:54:22;;;;;;;48.67;27.20;;;;;;;;;;5133128;27;20111;-49
2021/04/19 03:56:48;;;;;;;51.83;29.00;;;;;;;;;;5116427;27;20142;-49
2021/04/19 03:59:14;;;;;;;53.25;27.77;;;;;;;;;;5133968;27;20023;-49
2021/04/19 04:01:40;;;;;;;49.85;26.65;;;;;;;;;;5127858;27;20019;-54
2021/04/19 04:04:06;;;;;;;51.35;27.85;;;;;;;;;;5132982;27;20031;-53
2021/04/19 04:06:31;;;;;;;54.70;26.85;;;;;;;;;;5127191;27;20382;-54
2021/04/19 04:08:57;;;;;;;54.17;29.23;;;;;;;;;;5133095;27;20025;-51
2021/04/19 04:11:22;;;;;;;55.08;28.35;;;;;;;;;;5128981;27;20107;-51
2021/04/19 04:13:48;;;;;;;50.25;27.48;;;;;;;;;;5122414;27;20023;-50
2021/04/19 04:16:13;;;;;;;50.10;27.60;;;;;;;;;;5128817;27;20115;-53
2021/04/19 04:18:38;;;;;;;53.72;28.38;;;;;;;;;;5130708;27;20055;-52
2021/04/19 04:21:03;;;;;;;88.85;30.08;;;;;;;;;;5124653;27;20027;-51
2021/04/19 04:23:29;;;;;;;110.20;32.95;;;;;;;;;;5131273;27;20090;-52
2021/04/19 04:25:55;;;;;;;68.95;29.05;;;;;;;;;;5127767;27;20019;-53
2021/04/19 04:28:20;;;;;;;124.10;32.72;;;;;;;;;;5133524;27;20031;-53
2021/04/19 04:30:46;;;;;;;51.50;27.60;;;;;;;;;;5127739;27;20024;-52
2021/04/19 04:33:11;;;;;;;62.38;28.42;;;;;;;;;;5109803;28;20554;-51
2021/04/19 04:35:37;;;;;;;53.55;27.55;;;;;;;;;;5123681;27;20374;-48
2021/04/19 04:38:03;;;;;;;53.63;27.25;;;;;;;;;;5117384;28;20068;-51
2021/04/19 04:40:28;;;;;;;48.55;27.00;;;;;;;;;;5114111;28;20102;-53
2021/04/19 04:42:56;;;;;;;51.35;24.65;;;;;;;;;;5129421;27;20111;-51
2021/04/19 04:45:22;;;;;;;50.75;26.88;;;;;;;;;;5119244;27;20468;-52
2021/04/19 04:48:07;;;;;;;74.72;29.63;;;;;;;;;;5122778;28;20016;-51
2021/04/19 04:50:43;;;;;;;74.20;27.45;;;;;;;;;;5073248;28;20038;-52
2021/04/19 04:53:12;;;;;;;66.30;25.95;;;;;;;;;;5128251;28;20087;-50
2021/04/19 04:55:38;;;;;;;141.20;29.00;;;;;;;;;;5130652;28;20102;-53
2021/04/19 04:58:04;;;;;;;215.93;30.13;;;;;;;;;;5132204;27;20016;-52
2021/04/19 05:00:30;;;;;;;38.30;23.10;;;;;;;;;;5129933;27;20061;-49
2021/04/19 05:02:56;;;;;;;35.13;23.20;;;;;;;;;;5109270;28;20019;-49
2021/04/19 05:05:21;;;;;;;33.05;23.00;;;;;;;;;;5119994;28;20027;-53
2021/04/19 05:07:47;;;;;;;34.72;22.75;;;;;;;;;;5132609;27;20045;-52
2021/04/19 05:10:13;;;;;;;29.23;21.42;;;;;;;;;;5130388;27;20501;-53
2021/04/19 05:12:38;;;;;;;31.45;22.50;;;;;;;;;;5120851;27;20015;-52
2021/04/19 05:15:07;;;;;;;31.42;21.77;;;;;;;;;;5127796;27;20020;-52
2021/04/19 05:17:32;;;;;;;34.00;21.77;;;;;;;;;;5136606;27;20465;-51
2021/04/19 05:19:57;;;;;;;28.75;20.60;;;;;;;;;;5135776;27;20015;-48
2021/04/19 05:22:23;;;;;;;29.80;21.48;;;;;;;;;;5130085;27;20028;-49
2021/04/19 05:24:48;;;;;;;28.60;20.48;;;;;;;;;;5116424;27;20039;-52
2021/04/19 05:27:14;;;;;;;30.27;21.70;;;;;;;;;;5115908;28;20015;-48
2021/04/19 05:29:39;;;;;;;28.60;20.48;;;;;;;;;;5116234;27;20067;-52
2021/04/19 05:32:06;;;;;;;24.55;18.77;;;;;;;;;;5121597;27;20382;-51
2021/04/19 05:34:31;;;;;;;27.38;20.23;;;;;;;;;;5131707;27;20434;-53
2021/04/19 05:36:57;;;;;;;29.00;19.70;;;;;;;;;;5136451;27;20019;-52
2021/04/19 05:39:22;;;;;;;25.70;19.83;;;;;;;;;;5129437;27;20015;-52
2021/04/19 05:41:47;;;;;;;27.65;20.48;;;;;;;;;;5128019;27;20012;-53
2021/04/19 05:44:13;;;;;;;28.00;20.85;;;;;;;;;;5125695;27;20099;-53
2021/04/19 05:46:38;;;;;;;26.42;19.50;;;;;;;;;;5125618;27;20523;-52
2021/04/19 05:49:03;;;;;;;27.80;20.15;;;;;;;;;;5122360;27;20019;-50
2021/04/19 05:51:33;;;;;;;27.58;21.13;;;;;;;;;;5126911;27;20039;-52
2021/04/19 05:53:59;;;;;;;26.55;21.00;;;;;;;;;;5136268;27;20027;-55
2021/04/19 05:56:36;;;;;;;27.92;20.58;;;;;;;;;;5115334;28;20057;-50
2021/04/19 05:59:10;;;;;;;26.98;20.27;;;;;;;;;;5132126;27;20404;-52
2021/04/19 06:01:39;;;;;;;25.05;18.90;;;;;;;;;;5122297;27;20023;-53
2021/04/19 06:04:13;;;;;;;27.20;20.63;;;;;;;;;;5134188;27;20164;-50
2021/04/19 06:06:41;;;;;;;27.00;20.60;;;;;;;;;;5123078;27;20030;-53
2021/04/19 06:09:17;;;;;;;22.98;18.65;;;;;;;;;;5123621;27;20023;-53
2021/04/19 06:11:43;;;;;;;29.35;21.45;;;;;;;;;;5126728;27;20056;-49
2021/04/19 06:14:12;;;;;;;29.02;21.90;;;;;;;;;;5122984;27;20339;-50
2021/04/19 06:16:39;;;;;;;29.98;23.45;;;;;;;;;;5125504;27;20047;-53
2021/04/19 06:19:11;;;;;;;32.70;23.88;;;;;;;;;;5118649;27;20027;-52
2021/04/19 06:21:37;;;;;;;30.08;22.15;;;;;;;;;;5126646;27;20102;-53
2021/04/19 06:24:03;;;;;;;26.23;20.00;;;;;;;;;;5132414;27;20019;-52
2021/04/19 06:26:28;;;;;;;25.52;20.88;;;;;;;;;;5132574;27;20542;-54
2021/04/19 06:28:54;;;;;;;23.35;19.55;;;;;;;;;;5122307;27;20027;-50
2021/04/19 06:31:21;;;;;;;25.00;19.77;;;;;;;;;;5111773;28;20531;-54
2021/04/19 06:34:02;;;;;;;23.38;19.25;;;;;;;;;;5114491;27;20016;-51
2021/04/19 06:36:29;;;;;;;24.85;19.65;;;;;;;;;;5130910;27;20054;-53
2021/04/19 06:38:54;;;;;;;26.42;20.45;;;;;;;;;;5122603;27;20023;-51
2021/04/19 06:41:20;;;;;;;27.02;20.80;;;;;;;;;;5111660;28;20027;-52
2021/04/19 06:43:45;;;;;;;26.40;21.67;;;;;;;;;;5115859;27;20046;-53
2021/04/19 06:46:11;;;;;;;28.73;22.65;;;;;;;;;;5128633;27;20103;-53
2021/04/19 06:48:36;;;;;;;28.67;21.42;;;;;;;;;;5135246;27;20064;-53
2021/04/19 06:51:02;;;;;;;29.30;21.55;;;;;;;;;;5130127;27;20036;-49
2021/04/19 06:53:27;;;;;;;25.05;20.73;;;;;;;;;;5131622;27;20030;-52
2021/04/19 06:55:52;;;;;;;24.27;20.48;;;;;;;;;;5133769;27;20015;-49
2021/04/19 06:58:17;;;;;;;23.58;19.75;;;;;;;;;;5135104;27;20525;-50
2021/04/19 07:00:43;;;;;;;25.27;19.70;;;;;;;;;;5130581;27;20104;-52
2021/04/19 07:03:09;;;;;;;26.05;21.05;;;;;;;;;;5118021;27;20467;-52
2021/04/19 07:05:35;;;;;;;21.58;19.25;;;;;;;;;;5120392;27;20031;-50
2021/04/19 07:08:04;;;;;;;24.05;19.85;;;;;;;;;;5129472;27;20023;-46
2021/04/19 07:10:30;;;;;;;26.10;20.77;;;;;;;;;;5134573;27;20046;-51
2021/04/19 07:12:56;;;;;;;24.48;19.65;;;;;;;;;;5117731;27;20071;-50
2021/04/19 07:15:22;;;;;;;21.92;18.70;;;;;;;;;;5131583;27;20027;-52
2021/04/19 07:17:48;;;;;;;22.50;19.20;;;;;;;;;;5130463;27;20019;-54
2021/04/19 07:20:13;;;;;;;20.92;18.58;;;;;;;;;;5129007;27;20035;-52
2021/04/19 07:22:39;;;;;;;22.25;19.10;;;;;;;;;;5119567;27;20019;-51
2021/04/19 07:25:07;;;;;;;21.27;18.95;;;;;;;;;;5133598;27;20030;-50
2021/04/19 07:27:34;;;;;;;24.13;18.60;;;;;;;;;;5124693;27;20023;-48
2021/04/19 07:29:59;;;;;;;20.63;18.50;;;;;;;;;;5112640;28;20475;-53
2021/04/19 07:32:34;;;;;;;20.25;18.08;;;;;;;;;;5116650;27;20015;-49
2021/04/19 07:34:59;;;;;;;24.08;19.55;;;;;;;;;;5132786;27;20103;-50
2021/04/19 07:37:25;;;;;;;22.67;19.45;;;;;;;;;;5134605;27;20043;-53
2021/04/19 07:39:51;;;;;;;20.67;18.10;;;;;;;;;;5134242;27;20019;-53
2021/04/19 07:42:17;;;;;;;22.15;19.73;;;;;;;;;;5123860;27;20019;-53
2021/04/19 07:44:46;;;;;;;21.05;18.52;;;;;;;;;;5131173;27;20055;-54
2021/04/19 07:47:31;;;;;;;21.77;18.80;;;;;;;;;;5132788;27;20184;-54
2021/04/19 07:49:57;;;;;;;20.08;17.98;;;;;;;;;;5121717;27;20027;-54
2021/04/19 07:52:23;;;;;;;20.23;17.85;;;;;;;;;;5114972;27;20490;-53
2021/04/19 07:55:08;;;;;;;18.98;16.55;;;;;;;;;;5124249;27;20129;-54
2021/04/19 07:57:33;;;;;;;19.20;17.08;;;;;;;;;;5133850;27;20600;-52
2021/04/19 07:59:59;;;;;;;19.73;16.55;;;;;;;;;;5123075;27;20108;-52
2021/04/19 08:02:24;;;;;;;19.33;17.25;;;;;;;;;;5110038;28;20024;-54
2021/04/19 08:04:50;;;;;;;20.42;17.10;;;;;;;;;;5113538;27;20467;-51
2021/04/19 08:07:29;;;;;;;18.98;16.65;;;;;;;;;;5117020;27;20019;-52
2021/04/19 08:09:55;;;;;;;18.13;16.23;;;;;;;;;;5118821;27;20466;-53
2021/04/19 08:12:32;;;;;;;20.83;16.88;;;;;;;;;;5127640;27;20019;-51
2021/04/19 08:14:58;;;;;;;18.40;16.50;;;;;;;;;;5127855;27;20015;-51
2021/04/19 08:17:28;;;;;;;21.52;18.45;;;;;;;;;;5119300;27;20020;-53
2021/04/19 08:19:54;;;;;;;19.20;17.20;;;;;;;;;;5118237;27;20431;-51
2021/04/19 08:22:29;;;;;;;21.35;18.65;;;;;;;;;;5129677;27;20039;-53
2021/04/19 08:25:08;;;;;;;19.42;17.27;;;;;;;;;;5133633;27;20080;-53
2021/04/19 08:27:33;;;;;;;20.00;17.85;;;;;;;;;;5127708;27;20027;-53
2021/04/19 08:29:59;;;;;;;19.63;17.52;;;;;;;;;;5112589;28;20016;-50
2021/04/19 08:32:24;;;;;;;20.02;16.98;;;;;;;;;;5110040;28;20034;-51
2021/04/19 08:34:50;;;;;;;20.67;16.77;;;;;;;;;;5130089;27;20015;-51
2021/04/19 08:37:19;;;;;;;19.65;16.60;;;;;;;;;;5130969;27;20519;-52
2021/04/19 08:39:45;;;;;;;18.42;15.45;;;;;;;;;;5113863;28;20498;-52
2021/04/19 08:42:10;;;;;;;20.90;18.73;;;;;;;;;;5128836;27;20088;-51
2021/04/19 08:44:35;;;;;;;20.60;18.17;;;;;;;;;;5125090;27;20023;-53
2021/04/19 08:47:02;;;;;;;19.70;16.60;;;;;;;;;;5118963;28;20439;-53
2021/04/19 08:49:28;;;;;;;18.92;16.77;;;;;;;;;;5125106;28;20042;-52
2021/04/19 08:51:53;;;;;;;18.70;16.73;;;;;;;;;;5120827;27;20047;-51
2021/04/19 08:54:19;;;;;;;19.38;16.42;;;;;;;;;;5112739;28;20027;-51
2021/04/19 08:56:44;;;;;;;19.67;16.25;;;;;;;;;;5112086;28;20539;-52
2021/04/19 08:59:10;;;;;;;20.17;18.08;;;;;;;;;;5130557;28;20023;-51
2021/04/19 09:01:35;;;;;;;20.67;18.20;;;;;;;;;;5129931;27;20075;-54
2021/04/19 09:04:01;;;;;;;19.27;17.17;;;;;;;;;;5132273;27;20469;-50
2021/04/19 09:06:28;;;;;;;20.52;17.42;;;;;;;;;;5132937;27;20023;-47
2021/04/19 09:08:53;;;;;;;18.33;16.38;;;;;;;;;;5131329;27;20111;-50
2021/04/19 09:11:26;;;;;;;17.17;15.35;;;;;;;;;;5111460;28;20098;-52
2021/04/19 09:14:02;;;;;;;16.95;15.05;;;;;;;;;;5130509;28;20092;-52
2021/04/19 09:16:32;;;;;;;17.08;15.25;;;;;;;;;;5130693;27;20456;-51
2021/04/19 09:18:58;;;;;;;17.10;15.27;;;;;;;;;;5133430;27;20015;-49
2021/04/19 09:21:32;;;;;;;17.05;14.15;;;;;;;;;;5129714;27;20023;-53
2021/04/19 09:23:58;;;;;;;16.30;13.07;;;;;;;;;;5131713;28;20144;-49
2021/04/19 09:26:42;;;;;;;15.20;13.60;;;;;;;;;;5122758;27;20435;-51
2021/04/19 09:29:07;;;;;;;17.17;14.25;;;;;;;;;;5128771;28;20035;-52
2021/04/19 09:31:51;;;;;;;15.88;13.85;;;;;;;;;;5129498;28;20019;-49
2021/04/19 09:34:16;;;;;;;14.70;13.20;;;;;;;;;;5131443;28;20026;-51
2021/04/19 09:36:51;;;;;;;14.98;13.32;;;;;;;;;;5132422;28;20023;-49
2021/04/19 09:39:35;;;;;;;15.30;13.70;;;;;;;;;;5131695;27;20020;-51
2021/04/19 09:42:00;;;;;;;14.27;12.77;;;;;;;;;;5121945;28;20471;-53
2021/04/19 09:44:27;;;;;;;13.40;11.68;;;;;;;;;;5122809;28;20035;-53
2021/04/19 09:46:52;;;;;;;13.23;11.93;;;;;;;;;;5120424;28;20012;-49
2021/04/19 09:49:20;;;;;;;15.50;13.90;;;;;;;;;;5130139;28;20034;-53
2021/04/19 09:51:45;;;;;;;16.40;13.25;;;;;;;;;;5126536;27;20039;-54
2021/04/19 09:54:12;;;;;;;14.80;13.10;;;;;;;;;;5121664;27;20318;-52
2021/04/19 09:56:39;;;;;;;15.60;13.55;;;;;;;;;;5125369;27;20022;-48
2021/04/19 09:59:05;;;;;;;15.02;13.43;;;;;;;;;;5120457;27;20031;-54
2021/04/19 10:01:31;;;;;;;14.50;12.95;;;;;;;;;;5121495;27;20591;-47
2021/04/19 10:03:58;;;;;;;14.07;12.68;;;;;;;;;;5123178;27;20113;-50
2021/04/19 10:06:28;;;;;;;16.00;13.40;;;;;;;;;;5132607;27;20043;-50
2021/04/19 10:08:53;;;;;;;15.52;12.40;;;;;;;;;;5132333;27;20023;-53
2021/04/19 10:11:23;;;;;;;13.63;12.02;;;;;;;;;;5130053;27;20302;-51
2021/04/19 10:13:48;;;;;;;13.88;11.85;;;;;;;;;;5123897;27;20042;-54
2021/04/19 10:16:14;;;;;;;15.95;13.85;;;;;;;;;;5135026;27;20452;-53
2021/04/19 10:18:40;;;;;;;19.92;15.35;;;;;;;;;;5135951;27;20064;-51
2021/04/19 10:21:06;;;;;;;17.02;14.85;;;;;;;;;;5133203;27;20023;-53
2021/04/19 10:23:41;;;;;;;16.65;14.88;;;;;;;;;;5134403;27;20027;-52
2021/04/19 10:26:07;;;;;;;17.55;14.90;;;;;;;;;;5125894;27;20023;-52
2021/04/19 10:28:35;;;;;;;18.77;15.82;;;;;;;;;;5115235;28;20026;-48
2021/04/19 10:31:20;;;;;;;18.73;16.30;;;;;;;;;;5119899;27;20019;-50
2021/04/19 10:33:46;;;;;;;17.45;14.05;;;;;;;;;;5134567;27;20388;-47
2021/04/19 10:36:20;;;;;;;20.00;15.93;;;;;;;;;;5127422;27;20028;-52
2021/04/19 10:38:50;;;;;;;19.73;15.48;;;;;;;;;;5116371;27;20060;-48
2021/04/19 10:41:16;;;;;;;16.92;14.32;;;;;;;;;;5121360;27;20327;-48
2021/04/19 10:43:42;;;;;;;17.98;15.25;;;;;;;;;;5122584;27;20033;-52
2021/04/19 10:46:20;;;;;;;16.58;14.80;;;;;;;;;;5130093;27;20024;-51
2021/04/19 10:48:46;;;;;;;17.67;14.70;;;;;;;;;;5127801;27;20023;-51
2021/04/19 10:51:18;;;;;;;17.05;14.20;;;;;;;;;;5115655;27;20046;-49
2021/04/19 10:53:43;;;;;;;17.65;14.40;;;;;;;;;;5117217;27;20027;-52
2021/04/19 10:56:10;;;;;;;19.77;15.35;;;;;;;;;;5119712;27;20015;-53
2021/04/19 10:58:36;;;;;;;17.92;14.73;;;;;;;;;;5134357;27;20023;-52
2021/04/19 11:01:02;;;;;;;17.65;14.70;;;;;;;;;;5128192;27;20068;-52
2021/04/19 11:03:37;;;;;;;16.15;13.57;;;;;;;;;;5133853;27;20046;-49
2021/04/19 11:06:07;;;;;;;17.08;14.50;;;;;;;;;;5129595;27;20019;-53
2021/04/19 11:08:51;;;;;;;19.98;13.73;;;;;;;;;;5130819;27;20034;-52
2021/04/19 11:11:43;;;;;;;25.42;15.02;;;;;;;;;;5127713;27;20054;-53
2021/04/19 11:14:16;;;;;;;17.52;13.15;;;;;;;;;;5130228;27;20027;-54
2021/04/19 11:17:11;;;;;;;14.52;13.02;;;;;;;;;;5126387;27;20026;-50
2021/04/19 11:19:40;;;;;;;15.77;12.98;;;;;;;;;;5116573;27;20032;-50
2021/04/19 11:22:19;;;;;;;15.27;13.68;;;;;;;;;;5129512;27;20027;-52
2021/04/19 11:24:45;;;;;;;16.13;14.00;;;;;;;;;;5134496;27;20022;-53
2021/04/19 11:27:10;;;;;;;17.27;14.68;;;;;;;;;;5133955;27;20019;-52
2021/04/19 11:29:36;;;;;;;16.98;14.55;;;;;;;;;;5130097;27;20068;-54
2021/04/19 11:32:01;;;;;;;14.68;12.98;;;;;;;;;;5127013;27;20456;-53
2021/04/19 11:34:33;;;;;;;17.33;12.95;;;;;;;;;;5130827;27;20012;-49
2021/04/19 11:36:58;;;;;;;13.40;11.52;;;;;;;;;;5126308;27;20016;-51
2021/04/19 11:39:24;;;;;;;13.23;11.38;;;;;;;;;;5128904;27;20026;-50
2021/04/19 11:41:49;;;;;;;13.80;12.43;;;;;;;;;;5129883;27;20102;-53
2021/04/19 11:44:15;;;;;;;12.82;11.43;;;;;;;;;;5130953;27;20093;-52
2021/04/19 11:46:44;;;;;;;12.25;10.90;;;;;;;;;;5122033;27;20088;-53
2021/04/19 11:49:14;;;;;;;13.40;11.65;;;;;;;;;;5132549;27;20475;-52
2021/04/19 11:51:39;;;;;;;13.68;12.38;;;;;;;;;;5117622;27;20115;-53
2021/04/19 11:54:04;;;;;;;14.68;13.18;;;;;;;;;;5128600;27;20141;-54
2021/04/19 11:56:30;;;;;;;13.70;12.23;;;;;;;;;;5127624;27;20417;-51
2021/04/19 11:58:55;;;;;;;13.93;12.20;;;;;;;;;;5128268;27;20501;-52
2021/04/19 12:01:20;;;;;;;13.85;12.45;;;;;;;;;;5122497;27;20015;-50
2021/04/19 12:03:46;;;;;;;11.00;9.90;;;;;;;;;;5113361;27;20023;-53
2021/04/19 12:06:12;;;;;;;10.95;9.85;;;;;;;;;;5125238;27;20217;-48
2021/04/19 12:08:42;;;;;;;11.20;10.10;;;;;;;;;;5131015;27;20535;-50
2021/04/19 12:11:09;;;;;;;11.80;10.55;;;;;;;;;;5126422;27;20479;-50
2021/04/19 12:13:34;;;;;;;11.05;9.95;;;;;;;;;;5129564;27;20015;-52
2021/04/19 12:16:00;;;;;;;11.10;10.00;;;;;;;;;;5133024;27;20023;-53
2021/04/19 12:18:26;;;;;;;11.15;10.05;;;;;;;;;;5132821;27;20114;-50
2021/04/19 12:20:52;;;;;;;10.63;9.52;;;;;;;;;;5129413;27;20421;-53
2021/04/19 12:23:17;;;;;;;11.13;10.10;;;;;;;;;;5128158;27;20019;-52
2021/04/19 12:25:43;;;;;;;10.57;9.60;;;;;;;;;;5133019;27;20019;-50
2021/04/19 12:28:08;;;;;;;10.68;9.68;;;;;;;;;;5131541;27;20023;-49
2021/04/19 12:30:33;;;;;;;9.55;8.65;;;;;;;;;;5121969;27;20403;-50
2021/04/19 12:32:59;;;;;;;11.05;9.95;;;;;;;;;;5112396;28;20497;-52
2021/04/19 12:35:24;;;;;;;12.10;10.27;;;;;;;;;;5126108;27;20065;-50
2021/04/19 12:37:49;;;;;;;11.85;10.65;;;;;;;;;;5117559;27;20459;-51
2021/04/19 12:40:16;;;;;;;12.25;11.07;;;;;;;;;;5125712;27;20061;-50
2021/04/19 12:42:42;;;;;;;11.57;10.48;;;;;;;;;;5120773;27;20026;-50
2021/04/19 12:45:07;;;;;;;11.60;10.40;;;;;;;;;;5131132;27;20019;-51
2021/04/19 12:47:33;;;;;;;11.13;10.02;;;;;;;;;;5133017;27;20465;-51
2021/04/19 12:49:58;;;;;;;12.60;10.30;;;;;;;;;;5127734;27;20153;-48
2021/04/19 12:52:23;;;;;;;11.13;9.63;;;;;;;;;;5128025;28;20036;-49
2021/04/19 12:54:49;;;;;;;11.00;9.52;;;;;;;;;;5127484;28;20080;-51
2021/04/19 12:57:14;;;;;;;10.07;9.07;;;;;;;;;;5119176;28;20047;-53
2021/04/19 12:59:39;;;;;;;9.65;8.65;;;;;;;;;;5121766;28;20123;-51
2021/04/19 13:02:06;;;;;;;10.98;9.95;;;;;;;;;;5119645;27;20015;-52
2021/04/19 13:04:31;;;;;;;10.85;9.68;;;;;;;;;;5124408;27;20022;-51
2021/04/19 13:06:57;;;;;;;11.82;10.65;;;;;;;;;;5121657;28;20023;-51
2021/04/19 13:09:23;;;;;;;12.03;10.07;;;;;;;;;;5111125;28;20102;-50
2021/04/19 13:11:48;;;;;;;12.57;10.70;;;;;;;;;;5119231;27;20280;-50
2021/04/19 13:14:13;;;;;;;11.23;9.98;;;;;;;;;;5122762;27;20056;-52
2021/04/19 13:16:39;;;;;;;11.50;10.40;;;;;;;;;;5115394;28;20580;-51
2021/04/19 13:19:04;;;;;;;11.55;10.38;;;;;;;;;;5123331;28;20064;-49
2021/04/19 13:21:29;;;;;;;11.55;10.32;;;;;;;;;;5113045;28;20042;-48
2021/04/19 13:23:56;;;;;;;11.40;10.30;;;;;;;;;;5119494;28;20007;-53
2021/04/19 13:26:21;;;;;;;12.52;11.23;;;;;;;;;;5127183;27;20521;-53
2021/04/19 13:28:46;;;;;;;12.95;11.55;;;;;;;;;;5123124;27;20055;-51
2021/04/19 13:31:12;;;;;;;12.60;11.30;;;;;;;;;;5124282;27;20050;-49
2021/04/19 13:33:37;;;;;;;13.20;11.75;;;;;;;;;;5121891;27;20046;-50
2021/04/19 13:36:02;;;;;;;12.93;11.27;;;;;;;;;;5125564;27;20016;-50
2021/04/19 13:38:27;;;;;;;13.48;12.18;;;;;;;;;;5127103;27;20049;-52
2021/04/19 13:40:53;;;;;;;14.15;12.63;;;;;;;;;;5122518;27;20417;-48
2021/04/19 13:43:19;;;;;;;15.95;12.65;;;;;;;;;;5114135;27;20489;-51
2021/04/19 13:45:45;;;;;;;17.15;12.05;;;;;;;;;;5125668;27;20482;-52
2021/04/19 13:48:10;;;;;;;15.65;12.50;;;;;;;;;;5128258;27;20039;-49
2021/04/19 13:50:35;;;;;;;11.85;10.65;;;;;;;;;;5127977;27;20758;-52
2021/04/19 13:53:01;;;;;;;13.63;12.23;;;;;;;;;;5124563;27;20131;-47
2021/04/19 13:55:26;;;;;;;13.52;12.13;;;;;;;;;;5127045;27;20019;-52
2021/04/19 13:57:52;;;;;;;13.15;11.82;;;;;;;;;;5126017;27;20015;-50
2021/04/19 14:00:18;;;;;;;11.88;10.68;;;;;;;;;;5129890;27;20011;-49
2021/04/19 14:02:44;;;;;;;12.52;11.23;;;;;;;;;;5117201;27;20077;-52
2021/04/19 14:05:09;;;;;;;12.57;11.27;;;;;;;;;;5133645;27;20023;-50
2021/04/19 14:07:35;;;;;;;12.55;10.80;;;;;;;;;;5123347;27;20023;-53
2021/04/19 14:10:00;;;;;;;12.15;10.90;;;;;;;;;;5119237;27;20459;-52
2021/04/19 14:12:28;;;;;;;13.30;10.77;;;;;;;;;;5123423;27;20023;-52
2021/04/19 14:14:53;;;;;;;11.40;10.30;;;;;;;;;;5136008;27;20050;-48
2021/04/19 14:17:18;;;;;;;12.30;11.13;;;;;;;;;;5135923;27;20015;-48
2021/04/19 14:19:43;;;;;;;13.85;11.10;;;;;;;;;;5125965;27;20051;-52